sensor_id;sensor_type;location;lat;lon;timestamp;temperature;humidity
20337;DHT22;10326;53.660;10.200;2022-07-06T00:02:06;18.70;58.90
20337;DHT22;10326;53.660;10.200;2022-07-06T00:04:33;18.70;58.80
20337;DHT22;10326;53.660;10.200;2022-07-06T00:07:00;18.70;58.90
20337;DHT22;10326;53.660;10.200;2022-07-06T00:09:28;18.70;59.00
20337;DHT22;10326;53.660;10.200;2022-07-06T00:11:55;18.70;59.00
20337;DHT22;10326;53.660;10.200;2022-07-06T00:14:22;18.70;59.20
20337;DHT22;10326;53.660;10.200;2022-07-06T00:16:50;18.70;59.20
20337;DHT22;10326;53.660;10.200;2022-07-06T00:19:17;18.70;59.40
20337;DHT22;10326;53.660;10.200;2022-07-06T00:21:44;18.70;59.40
20337;DHT22;10326;53.660;10.200;2022-07-06T00:24:11;18.60;59.50
20337;DHT22;10326;53.660;10.200;2022-07-06T00:26:38;18.60;59.60
20337;DHT22;10326;53.660;10.200;2022-07-06T00:29:05;18.60;59.70
20337;DHT22;10326;53.660;10.200;2022-07-06T00:31:33;18.60;59.70
20337;DHT22;10326;53.660;10.200;2022-07-06T00:34:02;18.60;60.00
20337;DHT22;10326;53.660;10.200;2022-07-06T00:36:30;18.50;60.30
20337;DHT22;10326;53.660;10.200;2022-07-06T00:38:57;18.50;60.30
20337;DHT22;10326;53.660;10.200;2022-07-06T00:41:24;18.50;60.40
20337;DHT22;10326;53.660;10.200;2022-07-06T00:43:52;18.40;60.40
20337;DHT22;10326;53.660;10.200;2022-07-06T00:46:25;18.40;60.60
20337;DHT22;10326;53.660;10.200;2022-07-06T00:48:55;18.40;60.80
20337;DHT22;10326;53.660;10.200;2022-07-06T00:51:26;18.40;60.70
20337;DHT22;10326;53.660;10.200;2022-07-06T00:53:58;18.40;61.20
20337;DHT22;10326;53.660;10.200;2022-07-06T00:56:26;18.40;61.10
20337;DHT22;10326;53.660;10.200;2022-07-06T00:58:55;18.40;61.20
20337;DHT22;10326;53.660;10.200;2022-07-06T01:01:23;18.30;61.10
20337;DHT22;10326;53.660;10.200;2022-07-06T01:03:50;18.30;61.30
20337;DHT22;10326;53.660;10.200;2022-07-06T01:06:17;18.30;61.40
20337;DHT22;10326;53.660;10.200;2022-07-06T01:08:45;18.30;61.50
20337;DHT22;10326;53.660;10.200;2022-07-06T01:11:13;18.30;61.80
20337;DHT22;10326;53.660;10.200;2022-07-06T01:13:41;18.30;61.70
20337;DHT22;10326;53.660;10.200;2022-07-06T01:16:08;18.30;61.90
20337;DHT22;10326;53.660;10.200;2022-07-06T01:18:36;18.30;61.80
20337;DHT22;10326;53.660;10.200;2022-07-06T01:21:12;18.30;61.90
20337;DHT22;10326;53.660;10.200;2022-07-06T01:23:41;18.30;62.40
20337;DHT22;10326;53.660;10.200;2022-07-06T01:26:11;18.30;62.00
20337;DHT22;10326;53.660;10.200;2022-07-06T01:28:39;18.20;62.00
20337;DHT22;10326;53.660;10.200;2022-07-06T01:31:14;18.20;62.00
20337;DHT22;10326;53.660;10.200;2022-07-06T01:33:42;18.20;62.30
20337;DHT22;10326;53.660;10.200;2022-07-06T01:36:11;18.20;62.00
20337;DHT22;10326;53.660;10.200;2022-07-06T01:38:46;18.20;62.20
20337;DHT22;10326;53.660;10.200;2022-07-06T01:41:13;18.20;62.40
20337;DHT22;10326;53.660;10.200;2022-07-06T01:43:40;18.20;62.10
20337;DHT22;10326;53.660;10.200;2022-07-06T01:46:09;18.20;62.20
20337;DHT22;10326;53.660;10.200;2022-07-06T01:48:36;18.20;62.20
20337;DHT22;10326;53.660;10.200;2022-07-06T01:51:04;18.20;62.30
20337;DHT22;10326;53.660;10.200;2022-07-06T01:53:34;18.10;62.30
20337;DHT22;10326;53.660;10.200;2022-07-06T01:56:03;18.10;62.50
20337;DHT22;10326;53.660;10.200;2022-07-06T01:58:31;18.10;62.50
20337;DHT22;10326;53.660;10.200;2022-07-06T02:00:58;18.10;62.60
20337;DHT22;10326;53.660;10.200;2022-07-06T02:03:25;18.10;62.70
20337;DHT22;10326;53.660;10.200;2022-07-06T02:05:52;18.10;62.70
20337;DHT22;10326;53.660;10.200;2022-07-06T02:08:20;18.10;62.80
20337;DHT22;10326;53.660;10.200;2022-07-06T02:10:48;18.00;62.80
20337;DHT22;10326;53.660;10.200;2022-07-06T02:13:17;18.10;63.00
20337;DHT22;10326;53.660;10.200;2022-07-06T02:15:44;18.10;63.10
20337;DHT22;10326;53.660;10.200;2022-07-06T02:18:11;18.00;62.90
20337;DHT22;10326;53.660;10.200;2022-07-06T02:20:38;18.00;62.70
20337;DHT22;10326;53.660;10.200;2022-07-06T02:23:05;17.90;62.80
20337;DHT22;10326;53.660;10.200;2022-07-06T02:25:33;17.90;63.00
20337;DHT22;10326;53.660;10.200;2022-07-06T02:28:03;17.80;63.00
20337;DHT22;10326;53.660;10.200;2022-07-06T02:30:31;17.80;63.20
20337;DHT22;10326;53.660;10.200;2022-07-06T02:32:58;17.80;63.10
20337;DHT22;10326;53.660;10.200;2022-07-06T02:35:26;17.70;63.10
20337;DHT22;10326;53.660;10.200;2022-07-06T02:37:53;17.70;63.30
20337;DHT22;10326;53.660;10.200;2022-07-06T02:40:20;17.60;63.60
20337;DHT22;10326;53.660;10.200;2022-07-06T02:42:47;17.60;63.70
20337;DHT22;10326;53.660;10.200;2022-07-06T02:45:16;17.60;63.90
20337;DHT22;10326;53.660;10.200;2022-07-06T02:47:43;17.50;64.30
20337;DHT22;10326;53.660;10.200;2022-07-06T02:50:10;17.50;64.40
20337;DHT22;10326;53.660;10.200;2022-07-06T02:52:38;17.50;64.40
20337;DHT22;10326;53.660;10.200;2022-07-06T02:55:06;17.50;64.50
20337;DHT22;10326;53.660;10.200;2022-07-06T02:57:33;17.50;64.60
20337;DHT22;10326;53.660;10.200;2022-07-06T03:00:00;17.50;64.70
20337;DHT22;10326;53.660;10.200;2022-07-06T03:02:31;17.50;64.90
20337;DHT22;10326;53.660;10.200;2022-07-06T03:04:59;17.50;65.20
20337;DHT22;10326;53.660;10.200;2022-07-06T03:07:27;17.50;65.20
20337;DHT22;10326;53.660;10.200;2022-07-06T03:09:55;17.50;65.40
20337;DHT22;10326;53.660;10.200;2022-07-06T03:12:22;17.50;65.50
20337;DHT22;10326;53.660;10.200;2022-07-06T03:14:49;17.50;65.60
20337;DHT22;10326;53.660;10.200;2022-07-06T03:17:16;17.60;65.80
20337;DHT22;10326;53.660;10.200;2022-07-06T03:19:46;17.60;66.00
20337;DHT22;10326;53.660;10.200;2022-07-06T03:22:13;17.60;66.30
20337;DHT22;10326;53.660;10.200;2022-07-06T03:24:41;17.60;66.10
20337;DHT22;10326;53.660;10.200;2022-07-06T03:27:08;17.60;66.10
20337;DHT22;10326;53.660;10.200;2022-07-06T03:29:36;17.70;66.30
20337;DHT22;10326;53.660;10.200;2022-07-06T03:32:04;17.70;66.40
20337;DHT22;10326;53.660;10.200;2022-07-06T03:34:32;17.70;66.60
20337;DHT22;10326;53.660;10.200;2022-07-06T03:37:01;17.70;66.70
20337;DHT22;10326;53.660;10.200;2022-07-06T03:39:28;17.70;67.60
20337;DHT22;10326;53.660;10.200;2022-07-06T03:41:57;17.70;66.80
20337;DHT22;10326;53.660;10.200;2022-07-06T03:44:24;17.70;67.00
20337;DHT22;10326;53.660;10.200;2022-07-06T03:46:51;17.80;67.20
20337;DHT22;10326;53.660;10.200;2022-07-06T03:49:22;17.80;67.20
20337;DHT22;10326;53.660;10.200;2022-07-06T03:51:53;17.80;67.20
20337;DHT22;10326;53.660;10.200;2022-07-06T03:54:22;17.80;67.20
20337;DHT22;10326;53.660;10.200;2022-07-06T03:56:49;17.80;67.20
20337;DHT22;10326;53.660;10.200;2022-07-06T03:59:16;17.90;67.20
20337;DHT22;10326;53.660;10.200;2022-07-06T04:01:43;17.90;66.90
20337;DHT22;10326;53.660;10.200;2022-07-06T04:04:13;17.80;66.90
20337;DHT22;10326;53.660;10.200;2022-07-06T04:06:43;17.80;67.00
20337;DHT22;10326;53.660;10.200;2022-07-06T04:09:10;17.90;67.00
20337;DHT22;10326;53.660;10.200;2022-07-06T04:11:40;17.80;67.00
20337;DHT22;10326;53.660;10.200;2022-07-06T04:14:08;17.80;67.20
20337;DHT22;10326;53.660;10.200;2022-07-06T04:16:35;17.80;67.10
20337;DHT22;10326;53.660;10.200;2022-07-06T04:19:02;17.80;67.20
20337;DHT22;10326;53.660;10.200;2022-07-06T04:21:30;17.80;67.20
20337;DHT22;10326;53.660;10.200;2022-07-06T04:23:58;17.80;67.30
20337;DHT22;10326;53.660;10.200;2022-07-06T04:26:26;17.80;67.60
20337;DHT22;10326;53.660;10.200;2022-07-06T04:28:58;17.80;67.40
20337;DHT22;10326;53.660;10.200;2022-07-06T04:31:27;17.70;67.50
20337;DHT22;10326;53.660;10.200;2022-07-06T04:33:55;17.70;67.50
20337;DHT22;10326;53.660;10.200;2022-07-06T04:36:23;17.70;67.70
20337;DHT22;10326;53.660;10.200;2022-07-06T04:38:50;17.60;67.80
20337;DHT22;10326;53.660;10.200;2022-07-06T04:41:17;17.60;67.90
20337;DHT22;10326;53.660;10.200;2022-07-06T04:43:44;17.50;67.90
20337;DHT22;10326;53.660;10.200;2022-07-06T04:46:17;17.50;68.20
20337;DHT22;10326;53.660;10.200;2022-07-06T04:48:46;17.50;68.50
20337;DHT22;10326;53.660;10.200;2022-07-06T04:51:21;17.50;68.60
20337;DHT22;10326;53.660;10.200;2022-07-06T04:53:49;17.50;68.60
20337;DHT22;10326;53.660;10.200;2022-07-06T04:56:17;17.50;68.80
20337;DHT22;10326;53.660;10.200;2022-07-06T04:58:44;17.50;68.90
20337;DHT22;10326;53.660;10.200;2022-07-06T05:01:14;17.50;69.00
20337;DHT22;10326;53.660;10.200;2022-07-06T05:03:43;17.50;69.10
20337;DHT22;10326;53.660;10.200;2022-07-06T05:06:13;17.50;69.40
20337;DHT22;10326;53.660;10.200;2022-07-06T05:08:42;17.60;69.40
20337;DHT22;10326;53.660;10.200;2022-07-06T05:11:09;17.60;69.40
20337;DHT22;10326;53.660;10.200;2022-07-06T05:13:36;17.60;69.30
20337;DHT22;10326;53.660;10.200;2022-07-06T05:16:04;17.60;69.30
20337;DHT22;10326;53.660;10.200;2022-07-06T05:18:32;17.60;69.40
20337;DHT22;10326;53.660;10.200;2022-07-06T05:21:02;17.70;69.60
20337;DHT22;10326;53.660;10.200;2022-07-06T05:23:30;17.70;70.00
20337;DHT22;10326;53.660;10.200;2022-07-06T05:25:57;17.70;69.70
20337;DHT22;10326;53.660;10.200;2022-07-06T05:28:24;17.70;69.80
20337;DHT22;10326;53.660;10.200;2022-07-06T05:30:52;17.60;69.70
20337;DHT22;10326;53.660;10.200;2022-07-06T05:33:19;17.60;69.80
20337;DHT22;10326;53.660;10.200;2022-07-06T05:35:46;17.60;69.90
20337;DHT22;10326;53.660;10.200;2022-07-06T05:38:15;17.60;70.20
20337;DHT22;10326;53.660;10.200;2022-07-06T05:40:43;17.60;70.40
20337;DHT22;10326;53.660;10.200;2022-07-06T05:43:10;17.50;70.30
20337;DHT22;10326;53.660;10.200;2022-07-06T05:45:37;17.50;70.50
20337;DHT22;10326;53.660;10.200;2022-07-06T05:48:05;17.50;70.60
20337;DHT22;10326;53.660;10.200;2022-07-06T05:50:50;17.50;70.90
20337;DHT22;10326;53.660;10.200;2022-07-06T05:53:18;17.50;71.10
20337;DHT22;10326;53.660;10.200;2022-07-06T05:55:48;17.50;71.40
20337;DHT22;10326;53.660;10.200;2022-07-06T05:58:16;17.50;71.40
20337;DHT22;10326;53.660;10.200;2022-07-06T06:00:45;17.50;71.40
20337;DHT22;10326;53.660;10.200;2022-07-06T06:03:16;17.50;71.70
20337;DHT22;10326;53.660;10.200;2022-07-06T06:05:44;17.60;71.60
20337;DHT22;10326;53.660;10.200;2022-07-06T06:08:14;17.50;71.90
20337;DHT22;10326;53.660;10.200;2022-07-06T06:10:42;17.60;72.10
20337;DHT22;10326;53.660;10.200;2022-07-06T06:13:13;17.60;72.50
20337;DHT22;10326;53.660;10.200;2022-07-06T06:15:40;17.60;72.30
20337;DHT22;10326;53.660;10.200;2022-07-06T06:18:07;17.70;72.20
20337;DHT22;10326;53.660;10.200;2022-07-06T06:20:34;17.70;72.20
20337;DHT22;10326;53.660;10.200;2022-07-06T06:23:02;17.70;72.20
20337;DHT22;10326;53.660;10.200;2022-07-06T06:25:31;17.70;72.30
20337;DHT22;10326;53.660;10.200;2022-07-06T06:28:02;17.70;72.40
20337;DHT22;10326;53.660;10.200;2022-07-06T06:30:29;17.70;72.40
20337;DHT22;10326;53.660;10.200;2022-07-06T06:33:11;17.70;72.20
20337;DHT22;10326;53.660;10.200;2022-07-06T06:35:42;17.80;73.10
20337;DHT22;10326;53.660;10.200;2022-07-06T06:38:10;17.80;73.20
20337;DHT22;10326;53.660;10.200;2022-07-06T06:40:37;17.80;72.70
20337;DHT22;10326;53.660;10.200;2022-07-06T06:43:06;17.90;72.70
20337;DHT22;10326;53.660;10.200;2022-07-06T06:45:37;17.90;72.70
20337;DHT22;10326;53.660;10.200;2022-07-06T06:48:05;17.90;72.80
20337;DHT22;10326;53.660;10.200;2022-07-06T06:50:32;17.90;72.80
20337;DHT22;10326;53.660;10.200;2022-07-06T06:53:00;18.00;72.80
20337;DHT22;10326;53.660;10.200;2022-07-06T06:55:27;18.00;72.80
20337;DHT22;10326;53.660;10.200;2022-07-06T06:57:54;18.00;73.00
20337;DHT22;10326;53.660;10.200;2022-07-06T07:00:22;18.00;72.80
20337;DHT22;10326;53.660;10.200;2022-07-06T07:02:49;18.00;72.60
20337;DHT22;10326;53.660;10.200;2022-07-06T07:05:16;18.10;72.50
20337;DHT22;10326;53.660;10.200;2022-07-06T07:07:43;18.10;72.50
20337;DHT22;10326;53.660;10.200;2022-07-06T07:10:10;18.10;72.60
20337;DHT22;10326;53.660;10.200;2022-07-06T07:12:43;18.10;72.60
20337;DHT22;10326;53.660;10.200;2022-07-06T07:15:11;18.10;72.60
20337;DHT22;10326;53.660;10.200;2022-07-06T07:17:39;18.10;72.20
20337;DHT22;10326;53.660;10.200;2022-07-06T07:20:07;18.10;72.10
20337;DHT22;10326;53.660;10.200;2022-07-06T07:22:35;18.10;72.10
20337;DHT22;10326;53.660;10.200;2022-07-06T07:25:03;18.10;72.30
20337;DHT22;10326;53.660;10.200;2022-07-06T07:27:30;18.10;72.20
20337;DHT22;10326;53.660;10.200;2022-07-06T07:29:58;18.20;72.30
20337;DHT22;10326;53.660;10.200;2022-07-06T07:32:25;18.20;72.80
20337;DHT22;10326;53.660;10.200;2022-07-06T07:34:53;18.20;72.30
20337;DHT22;10326;53.660;10.200;2022-07-06T07:37:20;18.20;72.50
20337;DHT22;10326;53.660;10.200;2022-07-06T07:39:47;18.20;72.40
20337;DHT22;10326;53.660;10.200;2022-07-06T07:42:14;18.30;72.40
20337;DHT22;10326;53.660;10.200;2022-07-06T07:44:42;18.30;72.20
20337;DHT22;10326;53.660;10.200;2022-07-06T07:47:09;18.40;72.40
20337;DHT22;10326;53.660;10.200;2022-07-06T07:49:36;18.40;71.90
20337;DHT22;10326;53.660;10.200;2022-07-06T07:52:06;18.50;71.50
20337;DHT22;10326;53.660;10.200;2022-07-06T07:54:35;18.50;71.60
20337;DHT22;10326;53.660;10.200;2022-07-06T07:57:03;18.50;71.80
20337;DHT22;10326;53.660;10.200;2022-07-06T07:59:30;18.50;71.80
20337;DHT22;10326;53.660;10.200;2022-07-06T08:01:57;18.50;71.60
20337;DHT22;10326;53.660;10.200;2022-07-06T08:04:25;18.50;71.50
20337;DHT22;10326;53.660;10.200;2022-07-06T08:06:52;18.50;71.30
20337;DHT22;10326;53.660;10.200;2022-07-06T08:09:20;18.50;71.20
20337;DHT22;10326;53.660;10.200;2022-07-06T08:11:47;18.60;71.50
20337;DHT22;10326;53.660;10.200;2022-07-06T08:14:14;18.60;71.10
20337;DHT22;10326;53.660;10.200;2022-07-06T08:16:42;18.60;70.70
20337;DHT22;10326;53.660;10.200;2022-07-06T08:19:09;18.70;70.80
20337;DHT22;10326;53.660;10.200;2022-07-06T08:21:39;18.70;70.70
20337;DHT22;10326;53.660;10.200;2022-07-06T08:24:07;18.70;71.00
20337;DHT22;10326;53.660;10.200;2022-07-06T08:26:36;18.70;71.20
20337;DHT22;10326;53.660;10.200;2022-07-06T08:29:04;18.80;71.20
20337;DHT22;10326;53.660;10.200;2022-07-06T08:31:31;18.80;70.80
20337;DHT22;10326;53.660;10.200;2022-07-06T08:34:00;18.80;70.80
20337;DHT22;10326;53.660;10.200;2022-07-06T08:36:27;18.90;69.70
20337;DHT22;10326;53.660;10.200;2022-07-06T08:38:54;18.90;69.80
20337;DHT22;10326;53.660;10.200;2022-07-06T08:41:23;18.90;69.60
20337;DHT22;10326;53.660;10.200;2022-07-06T08:43:53;18.90;69.50
20337;DHT22;10326;53.660;10.200;2022-07-06T08:46:21;19.00;69.10
20337;DHT22;10326;53.660;10.200;2022-07-06T08:48:49;19.00;69.50
20337;DHT22;10326;53.660;10.200;2022-07-06T08:51:19;19.00;68.80
20337;DHT22;10326;53.660;10.200;2022-07-06T08:53:48;19.10;69.40
20337;DHT22;10326;53.660;10.200;2022-07-06T08:56:17;19.10;69.20
20337;DHT22;10326;53.660;10.200;2022-07-06T08:58:45;19.20;68.60
20337;DHT22;10326;53.660;10.200;2022-07-06T09:01:14;19.30;68.20
20337;DHT22;10326;53.660;10.200;2022-07-06T09:03:42;19.20;67.40
20337;DHT22;10326;53.660;10.200;2022-07-06T09:06:11;19.20;66.90
20337;DHT22;10326;53.660;10.200;2022-07-06T09:08:41;19.20;66.70
20337;DHT22;10326;53.660;10.200;2022-07-06T09:11:09;19.20;66.50
20337;DHT22;10326;53.660;10.200;2022-07-06T09:13:37;19.20;66.50
20337;DHT22;10326;53.660;10.200;2022-07-06T09:16:10;19.10;66.70
20337;DHT22;10326;53.660;10.200;2022-07-06T09:18:41;19.00;66.90
20337;DHT22;10326;53.660;10.200;2022-07-06T09:21:10;19.00;67.50
20337;DHT22;10326;53.660;10.200;2022-07-06T09:23:38;19.00;67.90
20337;DHT22;10326;53.660;10.200;2022-07-06T09:26:06;19.00;68.30
20337;DHT22;10326;53.660;10.200;2022-07-06T09:28:42;19.00;68.10
20337;DHT22;10326;53.660;10.200;2022-07-06T09:31:10;19.00;67.70
20337;DHT22;10326;53.660;10.200;2022-07-06T09:33:40;19.00;67.90
20337;DHT22;10326;53.660;10.200;2022-07-06T09:36:37;19.00;68.00
20337;DHT22;10326;53.660;10.200;2022-07-06T09:39:19;19.00;67.70
20337;DHT22;10326;53.660;10.200;2022-07-06T09:41:49;19.00;67.80
20337;DHT22;10326;53.660;10.200;2022-07-06T09:44:23;19.10;68.20
20337;DHT22;10326;53.660;10.200;2022-07-06T09:46:56;19.10;66.90
20337;DHT22;10326;53.660;10.200;2022-07-06T09:49:25;19.10;66.20
20337;DHT22;10326;53.660;10.200;2022-07-06T09:51:55;19.20;66.40
20337;DHT22;10326;53.660;10.200;2022-07-06T09:54:23;19.20;66.00
20337;DHT22;10326;53.660;10.200;2022-07-06T09:56:52;19.20;66.00
20337;DHT22;10326;53.660;10.200;2022-07-06T09:59:21;19.30;66.10
20337;DHT22;10326;53.660;10.200;2022-07-06T10:01:51;19.30;66.60
20337;DHT22;10326;53.660;10.200;2022-07-06T10:04:20;19.40;66.00
20337;DHT22;10326;53.660;10.200;2022-07-06T10:06:50;19.40;65.70
20337;DHT22;10326;53.660;10.200;2022-07-06T10:09:19;19.50;64.90
20337;DHT22;10326;53.660;10.200;2022-07-06T10:11:49;19.50;65.30
20337;DHT22;10326;53.660;10.200;2022-07-06T10:14:20;19.60;64.70
20337;DHT22;10326;53.660;10.200;2022-07-06T10:16:48;19.60;63.30
20337;DHT22;10326;53.660;10.200;2022-07-06T10:19:17;19.60;63.60
20337;DHT22;10326;53.660;10.200;2022-07-06T10:21:48;19.60;63.70
20337;DHT22;10326;53.660;10.200;2022-07-06T10:24:18;19.60;63.90
20337;DHT22;10326;53.660;10.200;2022-07-06T10:26:46;19.60;64.00
20337;DHT22;10326;53.660;10.200;2022-07-06T10:29:14;19.60;62.70
20337;DHT22;10326;53.660;10.200;2022-07-06T10:31:45;19.60;62.70
20337;DHT22;10326;53.660;10.200;2022-07-06T10:34:15;19.50;62.10
20337;DHT22;10326;53.660;10.200;2022-07-06T10:36:46;19.50;62.10
20337;DHT22;10326;53.660;10.200;2022-07-06T10:39:32;19.50;62.30
20337;DHT22;10326;53.660;10.200;2022-07-06T10:42:40;19.50;62.20
20337;DHT22;10326;53.660;10.200;2022-07-06T10:45:12;19.50;61.70
20337;DHT22;10326;53.660;10.200;2022-07-06T10:47:41;19.40;61.80
20337;DHT22;10326;53.660;10.200;2022-07-06T10:50:10;19.40;61.80
20337;DHT22;10326;53.660;10.200;2022-07-06T10:52:53;19.40;61.70
20337;DHT22;10326;53.660;10.200;2022-07-06T10:57:57;19.40;60.50
20337;DHT22;10326;53.660;10.200;2022-07-06T11:00:24;19.30;61.20
20337;DHT22;10326;53.660;10.200;2022-07-06T11:02:51;19.30;61.00
20337;DHT22;10326;53.660;10.200;2022-07-06T11:05:40;19.30;60.90
20337;DHT22;10326;53.660;10.200;2022-07-06T11:08:10;19.30;60.20
20337;DHT22;10326;53.660;10.200;2022-07-06T11:10:46;19.30;60.10
20337;DHT22;10326;53.660;10.200;2022-07-06T11:13:25;19.30;60.50
20337;DHT22;10326;53.660;10.200;2022-07-06T11:16:00;19.30;60.40
20337;DHT22;10326;53.660;10.200;2022-07-06T11:18:38;19.30;60.80
20337;DHT22;10326;53.660;10.200;2022-07-06T11:21:20;19.30;60.50
20337;DHT22;10326;53.660;10.200;2022-07-06T11:23:50;19.40;61.10
20337;DHT22;10326;53.660;10.200;2022-07-06T11:26:18;19.40;60.60
20337;DHT22;10326;53.660;10.200;2022-07-06T11:28:46;19.50;61.20
20337;DHT22;10326;53.660;10.200;2022-07-06T11:31:16;19.60;60.80
20337;DHT22;10326;53.660;10.200;2022-07-06T11:33:46;19.70;61.20
20337;DHT22;10326;53.660;10.200;2022-07-06T11:36:18;19.70;61.00
20337;DHT22;10326;53.660;10.200;2022-07-06T11:38:47;19.90;61.80
20337;DHT22;10326;53.660;10.200;2022-07-06T11:41:17;20.00;61.30
20337;DHT22;10326;53.660;10.200;2022-07-06T11:43:47;20.20;60.90
20337;DHT22;10326;53.660;10.200;2022-07-06T11:46:25;20.30;60.30
20337;DHT22;10326;53.660;10.200;2022-07-06T11:48:54;20.40;60.70
20337;DHT22;10326;53.660;10.200;2022-07-06T11:51:23;20.40;61.10
20337;DHT22;10326;53.660;10.200;2022-07-06T11:53:54;20.50;61.50
20337;DHT22;10326;53.660;10.200;2022-07-06T11:56:23;20.60;60.20
20337;DHT22;10326;53.660;10.200;2022-07-06T11:58:53;20.70;60.70
20337;DHT22;10326;53.660;10.200;2022-07-06T12:01:22;20.90;60.70
20337;DHT22;10326;53.660;10.200;2022-07-06T12:03:50;20.90;60.10
20337;DHT22;10326;53.660;10.200;2022-07-06T12:06:19;21.00;60.30
20337;DHT22;10326;53.660;10.200;2022-07-06T12:08:48;21.00;59.70
20337;DHT22;10326;53.660;10.200;2022-07-06T12:11:22;21.10;59.40
20337;DHT22;10326;53.660;10.200;2022-07-06T12:13:51;21.00;58.80
20337;DHT22;10326;53.660;10.200;2022-07-06T12:16:20;21.10;59.10
20337;DHT22;10326;53.660;10.200;2022-07-06T12:18:51;21.00;58.90
20337;DHT22;10326;53.660;10.200;2022-07-06T12:21:19;21.00;58.90
20337;DHT22;10326;53.660;10.200;2022-07-06T12:23:49;21.00;59.10
20337;DHT22;10326;53.660;10.200;2022-07-06T12:26:17;21.00;59.30
20337;DHT22;10326;53.660;10.200;2022-07-06T12:28:59;21.00;59.10
20337;DHT22;10326;53.660;10.200;2022-07-06T12:31:34;21.00;58.20
20337;DHT22;10326;53.660;10.200;2022-07-06T12:34:02;21.00;58.50
20337;DHT22;10326;53.660;10.200;2022-07-06T12:36:30;20.90;58.50
20337;DHT22;10326;53.660;10.200;2022-07-06T12:38:57;20.90;58.40
20337;DHT22;10326;53.660;10.200;2022-07-06T12:41:30;20.90;58.70
20337;DHT22;10326;53.660;10.200;2022-07-06T12:44:04;20.90;57.70
20337;DHT22;10326;53.660;10.200;2022-07-06T12:46:34;21.00;57.50
20337;DHT22;10326;53.660;10.200;2022-07-06T12:49:11;21.00;57.40
20337;DHT22;10326;53.660;10.200;2022-07-06T12:51:59;21.00;57.90
20337;DHT22;10326;53.660;10.200;2022-07-06T12:54:30;21.00;57.10
20337;DHT22;10326;53.660;10.200;2022-07-06T12:57:08;21.10;57.10
20337;DHT22;10326;53.660;10.200;2022-07-06T12:59:40;21.20;57.70
20337;DHT22;10326;53.660;10.200;2022-07-06T13:02:16;21.20;57.70
20337;DHT22;10326;53.660;10.200;2022-07-06T13:04:55;21.30;57.50
20337;DHT22;10326;53.660;10.200;2022-07-06T13:07:24;21.40;57.20
20337;DHT22;10326;53.660;10.200;2022-07-06T13:09:51;21.50;57.00
20337;DHT22;10326;53.660;10.200;2022-07-06T13:12:20;21.60;56.20
20337;DHT22;10326;53.660;10.200;2022-07-06T13:14:48;21.60;56.60
20337;DHT22;10326;53.660;10.200;2022-07-06T13:17:16;21.60;56.60
20337;DHT22;10326;53.660;10.200;2022-07-06T13:19:43;21.70;55.90
20337;DHT22;10326;53.660;10.200;2022-07-06T13:22:10;21.70;56.00
20337;DHT22;10326;53.660;10.200;2022-07-06T13:24:37;21.70;55.60
20337;DHT22;10326;53.660;10.200;2022-07-06T13:27:05;21.70;56.40
20337;DHT22;10326;53.660;10.200;2022-07-06T13:29:34;21.70;55.70
20337;DHT22;10326;53.660;10.200;2022-07-06T13:32:01;21.70;55.90
20337;DHT22;10326;53.660;10.200;2022-07-06T13:34:29;21.70;55.70
20337;DHT22;10326;53.660;10.200;2022-07-06T13:36:56;21.70;55.50
20337;DHT22;10326;53.660;10.200;2022-07-06T13:39:23;21.70;55.30
20337;DHT22;10326;53.660;10.200;2022-07-06T13:41:59;21.70;55.40
20337;DHT22;10326;53.660;10.200;2022-07-06T13:44:26;21.60;55.30
20337;DHT22;10326;53.660;10.200;2022-07-06T13:46:54;21.60;55.50
20337;DHT22;10326;53.660;10.200;2022-07-06T13:49:22;21.60;55.70
20337;DHT22;10326;53.660;10.200;2022-07-06T13:51:49;21.70;55.20
20337;DHT22;10326;53.660;10.200;2022-07-06T13:54:16;21.80;55.10
20337;DHT22;10326;53.660;10.200;2022-07-06T13:56:43;21.80;55.20
20337;DHT22;10326;53.660;10.200;2022-07-06T13:59:10;21.90;55.90
20337;DHT22;10326;53.660;10.200;2022-07-06T14:01:37;22.00;55.20
20337;DHT22;10326;53.660;10.200;2022-07-06T14:04:05;22.00;54.50
20337;DHT22;10326;53.660;10.200;2022-07-06T14:06:33;22.10;54.00
20337;DHT22;10326;53.660;10.200;2022-07-06T14:09:00;22.20;54.20
20337;DHT22;10326;53.660;10.200;2022-07-06T14:11:27;22.20;53.50
20337;DHT22;10326;53.660;10.200;2022-07-06T14:13:54;22.30;54.00
20337;DHT22;10326;53.660;10.200;2022-07-06T14:16:21;22.30;54.20
20337;DHT22;10326;53.660;10.200;2022-07-06T14:18:48;22.40;53.20
20337;DHT22;10326;53.660;10.200;2022-07-06T14:21:18;22.50;53.90
20337;DHT22;10326;53.660;10.200;2022-07-06T14:23:45;22.50;53.10
20337;DHT22;10326;53.660;10.200;2022-07-06T14:26:14;22.60;53.20
20337;DHT22;10326;53.660;10.200;2022-07-06T14:28:41;22.60;53.00
20337;DHT22;10326;53.660;10.200;2022-07-06T14:31:08;22.70;53.20
20337;DHT22;10326;53.660;10.200;2022-07-06T14:33:35;22.70;52.90
20337;DHT22;10326;53.660;10.200;2022-07-06T14:36:03;22.70;52.20
20337;DHT22;10326;53.660;10.200;2022-07-06T14:38:32;22.70;51.90
20337;DHT22;10326;53.660;10.200;2022-07-06T14:40:59;22.70;51.90
20337;DHT22;10326;53.660;10.200;2022-07-06T14:43:27;22.70;51.80
20337;DHT22;10326;53.660;10.200;2022-07-06T14:45:54;22.60;51.10
20337;DHT22;10326;53.660;10.200;2022-07-06T14:48:21;22.60;51.50
20337;DHT22;10326;53.660;10.200;2022-07-06T14:50:48;22.50;50.80
20337;DHT22;10326;53.660;10.200;2022-07-06T14:53:16;22.50;51.20
20337;DHT22;10326;53.660;10.200;2022-07-06T14:55:46;22.50;51.30
20337;DHT22;10326;53.660;10.200;2022-07-06T14:58:13;22.50;50.90
20337;DHT22;10326;53.660;10.200;2022-07-06T15:00:43;22.40;50.80
20337;DHT22;10326;53.660;10.200;2022-07-06T15:03:10;22.40;51.30
20337;DHT22;10326;53.660;10.200;2022-07-06T15:05:37;22.30;51.80
20337;DHT22;10326;53.660;10.200;2022-07-06T15:08:05;22.30;52.00
20337;DHT22;10326;53.660;10.200;2022-07-06T15:10:32;22.30;52.10
20337;DHT22;10326;53.660;10.200;2022-07-06T15:13:01;22.30;52.10
20337;DHT22;10326;53.660;10.200;2022-07-06T15:15:29;22.30;52.20
20337;DHT22;10326;53.660;10.200;2022-07-06T15:17:56;22.30;52.60
20337;DHT22;10326;53.660;10.200;2022-07-06T15:20:23;22.30;52.50
20337;DHT22;10326;53.660;10.200;2022-07-06T15:22:51;22.30;52.40
20337;DHT22;10326;53.660;10.200;2022-07-06T15:25:18;22.30;52.40
20337;DHT22;10326;53.660;10.200;2022-07-06T15:27:46;22.40;52.50
20337;DHT22;10326;53.660;10.200;2022-07-06T15:30:15;22.40;52.30